createdAt,value
2019-02-16T00:01:11.214Z,6.00
2019-02-16T00:03:40.749Z,6.00
2019-02-16T00:06:10.457Z,6.00
2019-02-16T00:08:40.066Z,5.90
2019-02-16T00:11:09.566Z,6.00
2019-02-16T00:13:39.160Z,5.90
2019-02-16T00:16:08.688Z,5.90
2019-02-16T00:18:38.254Z,5.80
2019-02-16T00:21:07.772Z,5.90
2019-02-16T00:23:37.363Z,5.90
2019-02-16T00:26:06.988Z,5.80
2019-02-16T00:28:39.616Z,5.80
2019-02-16T00:31:09.140Z,5.80
2019-02-16T00:33:38.624Z,5.80
2019-02-16T00:36:08.193Z,5.80
2019-02-16T00:38:37.668Z,5.70
2019-02-16T00:41:07.193Z,5.70
2019-02-16T00:43:36.678Z,5.60
2019-02-16T00:46:06.138Z,5.60
2019-02-16T00:48:35.734Z,5.50
2019-02-16T00:51:13.216Z,5.40
2019-02-16T00:53:36.466Z,5.30
2019-02-16T00:56:06.021Z,5.20
2019-02-16T00:58:35.508Z,5.10
2019-02-16T01:01:05.063Z,5.00
2019-02-16T01:03:34.534Z,5.00
2019-02-16T01:06:04.027Z,4.90
2019-02-16T01:08:33.564Z,4.90
2019-02-16T01:11:03.129Z,4.80
2019-02-16T01:13:32.539Z,4.60
2019-02-16T01:16:02.070Z,4.60
2019-02-16T01:18:31.651Z,4.50
2019-02-16T01:21:01.355Z,4.50
2019-02-16T01:23:30.861Z,4.40
2019-02-16T01:26:00.279Z,4.40
2019-02-16T01:28:29.902Z,4.30
2019-02-16T01:30:59.567Z,4.20
2019-02-16T01:33:29.029Z,4.10
2019-02-16T01:35:58.527Z,4.10
2019-02-16T01:38:28.033Z,4.10
2019-02-16T01:40:57.556Z,4.10
2019-02-16T01:43:27.074Z,4.10
2019-02-16T01:45:56.508Z,4.00
2019-02-16T01:48:26.103Z,4.00
2019-02-16T01:50:55.667Z,4.00
2019-02-16T01:53:25.211Z,3.90
2019-02-16T01:55:54.792Z,3.90
2019-02-16T01:58:24.340Z,3.90
2019-02-16T02:00:53.932Z,3.80
2019-02-16T02:03:23.521Z,3.80
2019-02-16T02:05:53.067Z,3.80
2019-02-16T02:08:22.551Z,3.80
2019-02-16T02:10:52.175Z,3.80
2019-02-16T02:13:21.673Z,3.80
2019-02-16T02:15:51.271Z,3.80
2019-02-16T02:18:20.804Z,3.70
2019-02-16T02:20:50.351Z,3.70
2019-02-16T02:23:19.891Z,3.70
2019-02-16T02:25:49.392Z,3.60
2019-02-16T02:28:18.855Z,3.60
2019-02-16T02:30:48.392Z,3.50
2019-02-16T02:33:17.917Z,3.40
2019-02-16T02:35:47.573Z,3.40
2019-02-16T02:38:17.120Z,3.40
2019-02-16T02:40:46.570Z,3.40
2019-02-16T02:43:16.185Z,3.40
2019-02-16T02:45:45.700Z,3.40
2019-02-16T02:48:16.691Z,3.30
2019-02-16T02:50:46.310Z,3.30
2019-02-16T02:53:15.898Z,3.20
2019-02-16T02:55:45.452Z,3.20
2019-02-16T02:58:14.997Z,3.10
2019-02-16T03:00:44.595Z,3.10
2019-02-16T03:03:14.182Z,3.10
2019-02-16T03:05:43.757Z,3.10
2019-02-16T03:08:13.292Z,3.10
2019-02-16T03:10:42.775Z,3.10
2019-02-16T03:13:12.479Z,3.10
2019-02-16T03:15:41.944Z,3.10
2019-02-16T03:18:11.432Z,3.10
2019-02-16T03:20:40.976Z,3.10
2019-02-16T03:23:22.878Z,3.10
2019-02-16T03:26:15.276Z,3.10
2019-02-16T03:28:54.961Z,3.00
2019-02-16T03:31:53.186Z,3.00
2019-02-16T03:34:26.713Z,3.00
2019-02-16T03:37:57.793Z,3.00
2019-02-16T03:40:27.423Z,3.00
2019-02-16T03:42:56.940Z,3.00
2019-02-16T03:45:26.412Z,2.90
2019-02-16T03:47:55.940Z,2.90
2019-02-16T03:50:25.476Z,2.80
2019-02-16T03:52:55.056Z,2.80
2019-02-16T03:55:24.637Z,2.80
2019-02-16T03:57:54.255Z,2.80
2019-02-16T04:00:23.713Z,2.80
2019-02-16T04:02:53.222Z,2.80
2019-02-16T04:05:22.820Z,2.80
2019-02-16T04:07:52.299Z,2.80
2019-02-16T04:10:21.791Z,2.80
2019-02-16T04:12:51.379Z,2.80
2019-02-16T04:15:20.950Z,2.80
2019-02-16T04:17:50.417Z,2.80
2019-02-16T04:20:19.988Z,2.70
2019-02-16T04:22:49.475Z,2.60
2019-02-16T04:25:18.946Z,2.60
2019-02-16T04:27:48.459Z,2.60
2019-02-16T04:30:17.997Z,2.60
2019-02-16T04:32:47.445Z,2.60
2019-02-16T04:35:16.978Z,2.60
2019-02-16T04:37:46.584Z,2.60
2019-02-16T04:40:16.167Z,2.60
2019-02-16T04:42:45.756Z,2.50
2019-02-16T04:45:15.275Z,2.50
2019-02-16T04:47:44.824Z,2.40
2019-02-16T04:50:14.408Z,2.40
2019-02-16T04:52:43.911Z,2.30
2019-02-16T04:55:13.620Z,2.40
2019-02-16T04:57:43.300Z,2.40
2019-02-16T05:00:13.029Z,2.40
2019-02-16T05:02:42.520Z,2.50
2019-02-16T05:05:12.090Z,2.50
2019-02-16T05:07:41.622Z,2.50
2019-02-16T05:10:11.303Z,2.60
2019-02-16T05:12:40.955Z,2.60
2019-02-16T05:15:10.623Z,2.70
2019-02-16T05:17:40.049Z,2.70
2019-02-16T05:20:09.526Z,2.60
2019-02-16T05:22:44.679Z,2.60
2019-02-16T05:25:10.228Z,2.60
2019-02-16T05:27:39.693Z,2.60
2019-02-16T05:30:09.336Z,2.60
2019-02-16T05:32:38.897Z,2.60
2019-02-16T05:35:08.506Z,2.60
2019-02-16T05:37:38.038Z,2.60
2019-02-16T05:40:08.505Z,2.50
2019-02-16T05:42:38.019Z,2.50
2019-02-16T05:45:07.531Z,2.40
2019-02-16T05:47:37.122Z,2.40
2019-02-16T05:50:06.793Z,2.40
2019-02-16T05:52:36.265Z,2.40
2019-02-16T05:55:05.842Z,2.40
2019-02-16T05:57:35.451Z,2.40
2019-02-16T06:00:05.282Z,2.40
2019-02-16T06:02:34.835Z,2.40
2019-02-16T06:05:04.491Z,2.30
2019-02-16T06:07:34.164Z,2.30
2019-02-16T06:10:03.649Z,2.30
2019-02-16T06:12:33.183Z,2.10
2019-02-16T06:15:02.759Z,2.10
2019-02-16T06:17:32.348Z,2.10
2019-02-16T06:20:01.832Z,2.10
2019-02-16T06:22:31.367Z,2.10
2019-02-16T06:25:00.866Z,2.10
2019-02-16T06:27:30.435Z,2.10
2019-02-16T06:30:00.024Z,2.10
2019-02-16T06:32:29.566Z,2.20
2019-02-16T06:35:18.031Z,2.10
2019-02-16T06:37:47.617Z,2.10
2019-02-16T06:40:17.164Z,2.10
2019-02-16T06:42:46.687Z,2.10
2019-02-16T06:45:16.402Z,2.10
2019-02-16T06:47:45.908Z,2.10
2019-02-16T06:50:15.381Z,2.20
2019-02-16T06:52:45.033Z,2.20
2019-02-16T06:55:14.665Z,2.30
2019-02-16T06:57:47.664Z,2.30
2019-02-16T07:00:19.297Z,2.30
2019-02-16T07:02:48.746Z,2.30
2019-02-16T07:05:18.292Z,2.40
2019-02-16T07:07:47.845Z,2.50
2019-02-16T07:10:17.407Z,2.60
2019-02-16T07:12:46.978Z,2.70
2019-02-16T07:15:16.459Z,2.70
2019-02-16T07:17:58.424Z,2.70
2019-02-16T07:20:28.004Z,2.70
2019-02-16T07:22:57.651Z,2.80
2019-02-16T07:25:27.287Z,2.90
2019-02-16T07:27:56.966Z,3.00
2019-02-16T07:30:26.443Z,3.10
2019-02-16T07:32:55.882Z,3.20
2019-02-16T07:35:25.443Z,3.30
2019-02-16T07:37:54.949Z,3.50
2019-02-16T07:40:24.527Z,3.60
2019-02-16T07:42:58.418Z,3.60
2019-02-16T07:45:54.842Z,3.70
2019-02-16T07:48:37.919Z,3.90
2019-02-16T07:51:29.060Z,4.00
2019-02-16T07:54:17.431Z,4.20
2019-02-16T07:57:00.165Z,4.40
2019-02-16T07:59:47.813Z,4.60
2019-02-16T08:02:24.879Z,4.70
2019-02-16T08:05:11.638Z,4.90
2019-02-16T08:07:59.950Z,5.00
2019-02-16T08:10:45.517Z,5.10
2019-02-16T08:13:43.138Z,5.30
2019-02-16T08:16:38.391Z,5.40
2019-02-16T08:19:29.652Z,5.60
2019-02-16T08:22:10.798Z,5.80
2019-02-16T08:24:51.231Z,6.00
2019-02-16T08:27:54.694Z,6.10
2019-02-16T08:30:41.387Z,6.30
2019-02-16T08:33:38.952Z,6.40
2019-02-16T08:36:31.478Z,6.60
2019-02-16T08:39:18.349Z,6.70
2019-02-16T08:41:58.543Z,6.80
2019-02-16T08:44:45.490Z,6.90
2019-02-16T08:47:39.555Z,7.10
2019-02-16T08:50:30.857Z,7.20
2019-02-16T08:53:21.970Z,7.30
2019-02-16T08:56:12.672Z,7.40
2019-02-16T08:59:04.241Z,7.50
2019-02-16T09:02:02.120Z,7.60
2019-02-16T09:04:37.450Z,7.70
2019-02-16T09:07:20.908Z,7.80
2019-02-16T09:10:07.996Z,7.90
2019-02-16T09:12:45.584Z,8.00
2019-02-16T09:15:32.514Z,8.10
2019-02-16T09:18:13.227Z,8.20
2019-02-16T09:20:48.730Z,8.30
2019-02-16T09:23:58.614Z,8.40
2019-02-16T09:26:39.057Z,8.40
2019-02-16T09:29:33.758Z,8.50
2019-02-16T09:32:20.562Z,8.70
2019-02-16T09:35:08.934Z,8.80
2019-02-16T09:37:50.277Z,8.90
2019-02-16T09:40:41.675Z,9.00
2019-02-16T09:43:28.047Z,9.10
2019-02-16T09:46:02.064Z,9.30
2019-02-16T09:48:36.925Z,9.40
2019-02-16T09:51:23.689Z,9.50
2019-02-16T09:54:08.404Z,9.60
2019-02-16T09:56:50.995Z,9.60
2019-02-16T09:59:48.668Z,9.70
2019-02-16T10:02:42.833Z,9.80
2019-02-16T10:05:46.210Z,9.80
2019-02-16T10:08:37.768Z,9.90
2019-02-16T10:11:24.894Z,10.00
2019-02-16T10:14:28.247Z,10.10
2019-02-16T10:17:09.872Z,10.20
2019-02-16T10:19:48.521Z,10.40
2019-02-16T10:22:26.496Z,10.40
2019-02-16T10:25:18.012Z,10.40
2019-02-16T10:28:09.442Z,10.50
2019-02-16T10:31:12.782Z,10.60
2019-02-16T10:33:52.502Z,10.70
2019-02-16T10:36:34.502Z,10.80
2019-02-16T10:39:22.836Z,10.90
2019-02-16T10:42:09.507Z,10.90
2019-02-16T10:44:57.983Z,11.00
2019-02-16T10:47:46.463Z,11.10
2019-02-16T10:50:33.137Z,11.20
2019-02-16T10:53:22.931Z,11.20
2019-02-16T10:56:14.482Z,11.30
2019-02-16T10:59:20.933Z,11.30
2019-02-16T11:02:06.415Z,11.40
2019-02-16T11:04:41.635Z,11.50
2019-02-16T11:07:17.350Z,11.50
2019-02-16T11:09:58.156Z,11.60
2019-02-16T11:12:44.458Z,11.60
2019-02-16T11:15:30.452Z,11.60
2019-02-16T11:18:17.475Z,11.60
2019-02-16T11:21:04.568Z,11.70
2019-02-16T11:23:51.923Z,11.80
2019-02-16T11:26:44.719Z,11.90
2019-02-16T11:29:33.256Z,11.90
2019-02-16T11:32:20.422Z,12.00
2019-02-16T11:35:10.307Z,12.00
2019-02-16T11:37:58.869Z,12.10
2019-02-16T11:40:40.662Z,12.20
2019-02-16T11:43:27.154Z,12.20
2019-02-16T11:46:18.309Z,12.30
2019-02-16T11:49:04.802Z,12.40
2019-02-16T11:51:51.666Z,12.40
2019-02-16T11:54:30.839Z,12.50
2019-02-16T11:57:22.217Z,12.60
2019-02-16T11:59:59.565Z,12.60
2019-02-16T12:02:43.647Z,12.70
2019-02-16T12:05:30.661Z,12.70
2019-02-16T12:08:21.876Z,12.80
2019-02-16T12:11:10.897Z,12.80
2019-02-16T12:14:17.971Z,12.80
2019-02-16T12:16:54.948Z,12.90
2019-02-16T12:19:48.898Z,13.00
2019-02-16T12:22:35.813Z,13.00
2019-02-16T12:25:22.901Z,13.10
2019-02-16T12:28:07.374Z,13.00
2019-02-16T12:30:52.546Z,13.10
2019-02-16T12:33:41.026Z,13.20
2019-02-16T12:36:44.345Z,13.20
2019-02-16T12:39:35.754Z,13.20
2019-02-16T12:42:24.123Z,13.30
2019-02-16T12:45:12.556Z,13.30
2019-02-16T12:48:04.015Z,13.40
2019-02-16T12:50:55.411Z,13.40
2019-02-16T12:53:42.130Z,13.50
2019-02-16T12:56:39.506Z,13.60
2019-02-16T12:59:14.589Z,13.70
2019-02-16T13:01:55.899Z,13.80
2019-02-16T13:04:50.283Z,13.90
2019-02-16T13:07:28.228Z,14.00
2019-02-16T13:10:23.125Z,14.00
2019-02-16T13:13:20.485Z,14.10
2019-02-16T13:16:17.709Z,14.10
2019-02-16T13:18:54.223Z,14.10
2019-02-16T13:21:37.110Z,14.10
2019-02-16T13:24:18.666Z,14.10
2019-02-16T13:26:58.028Z,14.10
2019-02-16T13:29:44.961Z,14.10
2019-02-16T13:32:33.430Z,14.20
2019-02-16T13:35:27.616Z,14.20
2019-02-16T13:38:21.725Z,14.40
2019-02-16T13:40:59.040Z,14.50
2019-02-16T13:43:35.055Z,14.50
2019-02-16T13:46:23.461Z,14.60
2019-02-16T13:49:11.882Z,14.70
2019-02-16T13:51:58.983Z,14.70
2019-02-16T13:54:55.996Z,14.80
2019-02-16T13:57:42.823Z,14.90
2019-02-16T14:00:26.606Z,14.90
2019-02-16T14:03:20.561Z,15.00
2019-02-16T14:06:21.061Z,15.00
2019-02-16T14:08:57.789Z,15.00
2019-02-16T14:12:01.066Z,15.10
2019-02-16T14:14:54.878Z,15.10
2019-02-16T14:17:51.515Z,15.20
2019-02-16T14:20:20.527Z,15.20
2019-02-16T14:22:49.938Z,15.10
2019-02-16T14:25:27.386Z,15.20
2019-02-16T14:27:56.836Z,15.20
2019-02-16T14:30:26.418Z,15.20
2019-02-16T14:32:55.889Z,15.20
2019-02-16T14:35:25.381Z,15.20
2019-02-16T14:38:12.475Z,15.10
2019-02-16T14:40:41.907Z,15.10
2019-02-16T14:43:11.424Z,15.00
2019-02-16T14:45:41.500Z,15.00
2019-02-16T14:48:10.988Z,15.00
2019-02-16T14:50:40.513Z,15.00
2019-02-16T14:53:09.936Z,15.00
2019-02-16T14:55:39.439Z,15.00
2019-02-16T14:58:09.065Z,15.00
2019-02-16T15:00:38.591Z,15.00
2019-02-16T15:03:08.211Z,15.00
2019-02-16T15:05:37.839Z,14.90
2019-02-16T15:08:07.438Z,14.90
2019-02-16T15:10:36.848Z,14.90
2019-02-16T15:13:06.338Z,14.90
2019-02-16T15:15:35.921Z,14.80
2019-02-16T15:18:28.636Z,14.70
2019-02-16T15:20:58.108Z,14.70
2019-02-16T15:23:27.695Z,14.70
2019-02-16T15:26:01.110Z,14.70
2019-02-16T15:28:28.359Z,14.60
2019-02-16T15:30:57.838Z,14.50
2019-02-16T15:33:30.235Z,14.40
2019-02-16T15:42:38.292Z,14.20
2019-02-16T15:45:10.416Z,14.10
2019-02-16T15:47:39.934Z,14.00
2019-02-16T15:50:11.034Z,14.00
2019-02-16T15:52:40.601Z,13.90
2019-02-16T15:55:11.115Z,13.80
2019-02-16T15:57:40.601Z,13.80
2019-02-16T16:00:17.049Z,13.70
2019-02-16T16:02:46.628Z,13.70
2019-02-16T16:05:16.218Z,13.60
2019-02-16T16:07:49.066Z,13.50
2019-02-16T16:10:26.187Z,13.50
2019-02-16T16:13:01.985Z,13.40
2019-02-16T16:15:55.749Z,13.30
2019-02-16T16:18:47.260Z,13.20
2019-02-16T16:21:50.630Z,13.00
2019-02-16T16:24:26.629Z,12.90
2019-02-16T16:27:04.077Z,12.80
2019-02-16T16:29:50.342Z,12.70
2019-02-16T16:32:30.996Z,12.50
2019-02-16T16:35:15.945Z,12.40
2019-02-16T16:37:59.158Z,12.30
2019-02-16T16:40:50.442Z,12.20
2019-02-16T16:43:36.494Z,12.10
2019-02-16T16:46:37.101Z,12.00
2019-02-16T16:49:34.413Z,11.80
2019-02-16T16:52:10.828Z,11.70
2019-02-16T16:54:54.251Z,11.50
2019-02-16T16:57:32.645Z,11.50
2019-02-16T17:00:21.842Z,11.30
2019-02-16T17:03:07.778Z,11.20
2019-02-16T17:06:02.330Z,11.20
2019-02-16T17:08:50.738Z,11.10
2019-02-16T17:11:37.910Z,11.00
2019-02-16T17:14:21.709Z,10.90
2019-02-16T17:17:01.241Z,10.80
2019-02-16T17:19:52.470Z,10.70
2019-02-16T17:22:39.487Z,10.70
2019-02-16T17:25:27.885Z,10.60
2019-02-16T17:28:14.928Z,10.50
2019-02-16T17:31:03.321Z,10.40
2019-02-16T17:33:54.472Z,10.30
2019-02-16T17:36:45.632Z,10.20
2019-02-16T17:39:27.508Z,10.10
2019-02-16T17:42:08.772Z,10.00
2019-02-16T17:45:06.086Z,9.90
2019-02-16T17:47:54.498Z,9.90
2019-02-16T17:50:30.921Z,9.80
2019-02-16T17:53:09.633Z,9.70
2019-02-16T17:55:48.735Z,9.60
2019-02-16T17:58:37.042Z,9.60
2019-02-16T18:01:40.275Z,9.50
2019-02-16T18:04:31.371Z,9.40
2019-02-16T18:07:11.914Z,9.40
2019-02-16T18:09:58.693Z,9.30
2019-02-16T18:12:45.751Z,9.30
2019-02-16T18:15:30.553Z,9.20
2019-02-16T18:18:17.780Z,9.10
2019-02-16T18:20:59.279Z,9.10
2019-02-16T18:23:52.103Z,9.00
2019-02-16T18:26:43.400Z,9.00
2019-02-16T18:29:50.138Z,8.90
2019-02-16T18:32:38.514Z,8.80
2019-02-16T18:35:25.498Z,8.70
2019-02-16T18:38:16.814Z,8.60
2019-02-16T18:41:23.401Z,8.50
2019-02-16T18:44:01.971Z,8.50
2019-02-16T18:46:47.384Z,8.40
2019-02-16T18:49:33.627Z,8.40
2019-02-16T18:52:37.164Z,8.40
2019-02-16T18:55:15.853Z,8.40
2019-02-16T18:58:03.343Z,8.40
2019-02-16T19:00:48.603Z,8.40
2019-02-16T19:03:35.452Z,8.30
2019-02-16T19:06:32.703Z,8.30
2019-02-16T19:09:24.036Z,8.20
2019-02-16T19:12:12.475Z,8.20
2019-02-16T19:14:51.828Z,8.10
2019-02-16T19:17:40.215Z,8.00
2019-02-16T19:20:23.272Z,7.90
2019-02-16T19:22:58.516Z,7.80
2019-02-16T19:25:50.322Z,7.70
2019-02-16T19:28:41.596Z,7.70
2019-02-16T19:31:18.062Z,7.60
2019-02-16T19:34:15.603Z,7.50
2019-02-16T19:37:06.932Z,7.50
2019-02-16T19:39:51.933Z,7.40
2019-02-16T19:42:39.878Z,7.30
2019-02-16T19:45:19.503Z,7.30
2019-02-16T19:48:11.283Z,7.20
2019-02-16T19:50:58.088Z,7.10
2019-02-16T19:53:45.549Z,7.00
2019-02-16T19:56:49.034Z,7.00
2019-02-16T19:59:30.401Z,6.90
2019-02-16T20:02:22.494Z,6.90
2019-02-16T20:05:16.643Z,6.80
2019-02-16T20:07:56.278Z,6.80
2019-02-16T20:10:56.812Z,6.80
2019-02-16T20:13:45.231Z,6.80
2019-02-16T20:16:48.844Z,6.90
2019-02-16T20:19:49.414Z,6.90
2019-02-16T20:22:40.610Z,6.80
2019-02-16T20:25:15.490Z,6.80
2019-02-16T20:28:12.970Z,6.80
2019-02-16T20:30:49.063Z,6.70
2019-02-16T20:33:49.400Z,6.80
2019-02-16T20:36:35.328Z,6.80
2019-02-16T20:39:18.359Z,6.80
2019-02-16T20:42:05.281Z,6.80
2019-02-16T20:45:11.616Z,6.80
2019-02-16T20:47:57.870Z,6.70
2019-02-16T20:50:41.723Z,6.70
2019-02-16T20:53:29.296Z,6.60
2019-02-16T20:56:26.720Z,6.60
2019-02-16T20:59:21.342Z,6.70
2019-02-16T21:02:09.745Z,6.70
2019-02-16T21:05:03.558Z,6.70
2019-02-16T21:08:04.176Z,6.70
2019-02-16T21:10:52.609Z,6.60
2019-02-16T21:13:29.928Z,6.60
2019-02-16T21:16:27.385Z,6.60
2019-02-16T21:19:07.571Z,6.60
2019-02-16T21:21:55.947Z,6.50
2019-02-16T21:24:44.449Z,6.40
2019-02-16T21:27:22.148Z,6.30
2019-02-16T21:30:09.000Z,6.20
2019-02-16T21:32:57.444Z,6.20
2019-02-16T21:35:42.689Z,6.10
2019-02-16T21:38:45.909Z,6.10
2019-02-16T21:41:46.646Z,6.10
2019-02-16T21:44:33.464Z,6.10
2019-02-16T21:47:25.032Z,6.00
2019-02-16T21:50:19.507Z,5.90
2019-02-16T21:53:21.365Z,5.80
2019-02-16T21:56:22.266Z,5.80
2019-02-16T21:59:18.979Z,5.80
2019-02-16T22:02:03.676Z,5.70
2019-02-16T22:04:50.614Z,5.60
2019-02-16T22:07:37.666Z,5.60
2019-02-16T22:10:24.336Z,5.50
2019-02-16T22:13:21.905Z,5.40
2019-02-16T22:15:51.431Z,5.30
2019-02-16T22:18:20.947Z,5.30
2019-02-16T22:20:50.412Z,5.30
2019-02-16T22:23:19.966Z,5.30
2019-02-16T22:25:49.419Z,5.20
2019-02-16T22:28:30.231Z,5.30
2019-02-16T22:30:50.139Z,5.30
2019-02-16T22:33:19.567Z,5.20
2019-02-16T22:35:48.998Z,5.20
2019-02-16T22:38:18.493Z,5.20
2019-02-16T22:40:48.041Z,5.20
2019-02-16T22:43:17.616Z,5.20
2019-02-16T22:45:47.065Z,5.20
2019-02-16T22:48:16.624Z,5.20
2019-02-16T22:50:46.176Z,5.20
2019-02-16T22:53:15.667Z,5.10
2019-02-16T22:55:45.142Z,5.10
2019-02-16T22:58:14.623Z,5.10
2019-02-16T23:00:48.938Z,5.10
2019-02-16T23:03:18.608Z,5.10
2019-02-16T23:05:48.111Z,5.20
2019-02-16T23:08:17.706Z,5.10
2019-02-16T23:10:47.212Z,5.10
2019-02-16T23:13:16.732Z,5.10
2019-02-16T23:15:46.298Z,5.10
2019-02-16T23:18:15.810Z,5.10
2019-02-16T23:20:47.565Z,5.10
2019-02-16T23:23:16.506Z,5.10
2019-02-16T23:25:45.983Z,5.10
2019-02-16T23:28:15.468Z,5.10
2019-02-16T23:30:44.909Z,5.10
2019-02-16T23:33:14.451Z,5.20
2019-02-16T23:35:43.944Z,5.20
2019-02-16T23:38:13.405Z,5.20
2019-02-16T23:40:42.903Z,5.20
2019-02-16T23:43:12.438Z,5.10
2019-02-16T23:45:41.946Z,5.10
2019-02-16T23:48:11.460Z,5.10
2019-02-16T23:50:41.014Z,5.20
2019-02-16T23:53:10.493Z,5.10
2019-02-16T23:55:40.130Z,5.00
2019-02-16T23:58:09.624Z,4.90
